sensor_id;sensor_type;location;lat;lon;timestamp;P1;durP1;ratioP1;P2;durP2;ratioP2
22357;SDS011;11346;50.150;8.150;2022-08-11T00:00:58;4.20;;;3.20;;
22357;SDS011;11346;50.150;8.150;2022-08-11T00:03:26;3.47;;;3.17;;
22357;SDS011;11346;50.150;8.150;2022-08-11T00:05:55;6.30;;;3.50;;
22357;SDS011;11346;50.150;8.150;2022-08-11T00:08:23;3.57;;;3.27;;
22357;SDS011;11346;50.150;8.150;2022-08-11T00:10:52;4.00;;;3.60;;
22357;SDS011;11346;50.150;8.150;2022-08-11T00:13:20;3.70;;;3.33;;
22357;SDS011;11346;50.150;8.150;2022-08-11T00:15:48;7.13;;;3.37;;
22357;SDS011;11346;50.150;8.150;2022-08-11T00:18:15;6.93;;;3.53;;
22357;SDS011;11346;50.150;8.150;2022-08-11T00:20:43;6.63;;;3.33;;
22357;SDS011;11346;50.150;8.150;2022-08-11T00:23:12;4.97;;;3.23;;
22357;SDS011;11346;50.150;8.150;2022-08-11T00:25:41;5.43;;;3.50;;
22357;SDS011;11346;50.150;8.150;2022-08-11T00:28:24;5.87;;;3.27;;
22357;SDS011;11346;50.150;8.150;2022-08-11T00:30:52;3.60;;;3.30;;
22357;SDS011;11346;50.150;8.150;2022-08-11T00:33:20;15.20;;;3.50;;
22357;SDS011;11346;50.150;8.150;2022-08-11T00:35:48;4.23;;;3.40;;
22357;SDS011;11346;50.150;8.150;2022-08-11T00:38:21;4.87;;;3.23;;
22357;SDS011;11346;50.150;8.150;2022-08-11T00:40:50;4.03;;;3.13;;
22357;SDS011;11346;50.150;8.150;2022-08-11T00:43:20;6.17;;;3.30;;
22357;SDS011;11346;50.150;8.150;2022-08-11T00:46:01;3.63;;;3.33;;
22357;SDS011;11346;50.150;8.150;2022-08-11T00:48:32;4.93;;;3.43;;
22357;SDS011;11346;50.150;8.150;2022-08-11T00:51:04;7.23;;;3.40;;
22357;SDS011;11346;50.150;8.150;2022-08-11T00:53:42;3.80;;;3.17;;
22357;SDS011;11346;50.150;8.150;2022-08-11T01:01:47;4.70;;;3.10;;
22357;SDS011;11346;50.150;8.150;2022-08-11T01:04:31;4.97;;;3.20;;
22357;SDS011;11346;50.150;8.150;2022-08-11T01:10:01;6.10;;;3.30;;
22357;SDS011;11346;50.150;8.150;2022-08-11T01:12:44;5.10;;;3.20;;
22357;SDS011;11346;50.150;8.150;2022-08-11T01:18:14;4.47;;;3.10;;
22357;SDS011;11346;50.150;8.150;2022-08-11T01:20:51;3.87;;;3.27;;
22357;SDS011;11346;50.150;8.150;2022-08-11T01:26:17;5.13;;;3.30;;
22357;SDS011;11346;50.150;8.150;2022-08-11T01:31:37;6.67;;;3.57;;
22357;SDS011;11346;50.150;8.150;2022-08-11T01:34:18;4.07;;;3.50;;
22357;SDS011;11346;50.150;8.150;2022-08-11T01:45:51;6.37;;;3.10;;
22357;SDS011;11346;50.150;8.150;2022-08-11T01:48:26;4.27;;;3.60;;
22357;SDS011;11346;50.150;8.150;2022-08-11T01:53:44;4.37;;;3.20;;
22357;SDS011;11346;50.150;8.150;2022-08-11T01:56:17;4.03;;;3.37;;
22357;SDS011;11346;50.150;8.150;2022-08-11T01:58:52;4.37;;;3.20;;
22357;SDS011;11346;50.150;8.150;2022-08-11T02:01:31;4.20;;;3.50;;
22357;SDS011;11346;50.150;8.150;2022-08-11T02:04:05;4.87;;;3.30;;
22357;SDS011;11346;50.150;8.150;2022-08-11T02:06:37;4.30;;;3.73;;
22357;SDS011;11346;50.150;8.150;2022-08-11T02:09:24;5.30;;;4.00;;
22357;SDS011;11346;50.150;8.150;2022-08-11T02:11:53;5.73;;;4.10;;
22357;SDS011;11346;50.150;8.150;2022-08-11T02:14:23;3.73;;;3.43;;
22357;SDS011;11346;50.150;8.150;2022-08-11T02:17:11;3.43;;;3.13;;
22357;SDS011;11346;50.150;8.150;2022-08-11T02:19:46;3.40;;;3.10;;
22357;SDS011;11346;50.150;8.150;2022-08-11T02:22:34;6.33;;;3.60;;
22357;SDS011;11346;50.150;8.150;2022-08-11T02:25:23;4.23;;;3.80;;
22357;SDS011;11346;50.150;8.150;2022-08-11T02:27:54;4.93;;;3.40;;
22357;SDS011;11346;50.150;8.150;2022-08-11T02:30:24;4.93;;;3.90;;
22357;SDS011;11346;50.150;8.150;2022-08-11T02:32:54;7.63;;;4.03;;
22357;SDS011;11346;50.150;8.150;2022-08-11T02:35:43;7.97;;;3.60;;
22357;SDS011;11346;50.150;8.150;2022-08-11T02:38:16;9.00;;;4.30;;
22357;SDS011;11346;50.150;8.150;2022-08-11T02:40:46;4.67;;;3.63;;
22357;SDS011;11346;50.150;8.150;2022-08-11T02:43:21;5.80;;;3.97;;
22357;SDS011;11346;50.150;8.150;2022-08-11T02:45:51;6.13;;;3.70;;
22357;SDS011;11346;50.150;8.150;2022-08-11T02:51:22;5.97;;;4.00;;
22357;SDS011;11346;50.150;8.150;2022-08-11T02:53:53;4.50;;;4.07;;
22357;SDS011;11346;50.150;8.150;2022-08-11T02:56:26;7.57;;;4.10;;
22357;SDS011;11346;50.150;8.150;2022-08-11T02:58:58;5.57;;;4.23;;
22357;SDS011;11346;50.150;8.150;2022-08-11T03:01:48;4.87;;;4.00;;
22357;SDS011;11346;50.150;8.150;2022-08-11T03:04:17;7.60;;;3.90;;
22357;SDS011;11346;50.150;8.150;2022-08-11T03:06:48;5.03;;;3.93;;
22357;SDS011;11346;50.150;8.150;2022-08-11T03:09:16;5.53;;;3.70;;
22357;SDS011;11346;50.150;8.150;2022-08-11T03:11:48;4.30;;;3.90;;
22357;SDS011;11346;50.150;8.150;2022-08-11T03:14:34;10.77;;;4.20;;
22357;SDS011;11346;50.150;8.150;2022-08-11T03:17:24;11.00;;;4.60;;
22357;SDS011;11346;50.150;8.150;2022-08-11T03:19:59;5.90;;;4.00;;
22357;SDS011;11346;50.150;8.150;2022-08-11T03:22:32;5.97;;;3.90;;
22357;SDS011;11346;50.150;8.150;2022-08-11T03:25:02;8.67;;;4.00;;
22357;SDS011;11346;50.150;8.150;2022-08-11T03:27:33;5.03;;;3.80;;
22357;SDS011;11346;50.150;8.150;2022-08-11T03:30:09;4.00;;;3.70;;
22357;SDS011;11346;50.150;8.150;2022-08-11T03:32:41;5.83;;;3.40;;
22357;SDS011;11346;50.150;8.150;2022-08-11T03:35:33;8.33;;;3.77;;
22357;SDS011;11346;50.150;8.150;2022-08-11T03:38:04;4.37;;;3.40;;
22357;SDS011;11346;50.150;8.150;2022-08-11T03:43:43;4.10;;;3.63;;
22357;SDS011;11346;50.150;8.150;2022-08-11T03:46:14;3.77;;;3.40;;
22357;SDS011;11346;50.150;8.150;2022-08-11T03:48:46;4.03;;;3.63;;
22357;SDS011;11346;50.150;8.150;2022-08-11T03:51:17;3.73;;;3.27;;
22357;SDS011;11346;50.150;8.150;2022-08-11T03:53:57;4.93;;;3.40;;
22357;SDS011;11346;50.150;8.150;2022-08-11T03:56:41;6.53;;;3.73;;
22357;SDS011;11346;50.150;8.150;2022-08-11T03:59:21;4.93;;;3.40;;
22357;SDS011;11346;50.150;8.150;2022-08-11T04:07:34;4.43;;;3.30;;
22357;SDS011;11346;50.150;8.150;2022-08-11T04:13:17;6.83;;;3.63;;
22357;SDS011;11346;50.150;8.150;2022-08-11T04:15:59;5.10;;;4.07;;
22357;SDS011;11346;50.150;8.150;2022-08-11T04:29:41;5.87;;;4.10;;
22357;SDS011;11346;50.150;8.150;2022-08-11T04:32:27;5.47;;;4.10;;
22357;SDS011;11346;50.150;8.150;2022-08-11T04:35:03;4.73;;;4.27;;
22357;SDS011;11346;50.150;8.150;2022-08-11T04:45:54;5.97;;;4.13;;
22357;SDS011;11346;50.150;8.150;2022-08-11T04:48:42;4.77;;;4.27;;
22357;SDS011;11346;50.150;8.150;2022-08-11T04:51:31;6.77;;;4.40;;
22357;SDS011;11346;50.150;8.150;2022-08-11T04:54:22;5.07;;;4.07;;
22357;SDS011;11346;50.150;8.150;2022-08-11T04:57:08;4.60;;;4.20;;
22357;SDS011;11346;50.150;8.150;2022-08-11T05:00:00;4.87;;;4.10;;
22357;SDS011;11346;50.150;8.150;2022-08-11T05:05:56;9.43;;;4.27;;
22357;SDS011;11346;50.150;8.150;2022-08-11T05:08:37;4.73;;;3.77;;
22357;SDS011;11346;50.150;8.150;2022-08-11T05:11:16;4.73;;;3.53;;
22357;SDS011;11346;50.150;8.150;2022-08-11T05:13:50;7.43;;;4.00;;
22357;SDS011;11346;50.150;8.150;2022-08-11T05:16:40;4.83;;;3.80;;
22357;SDS011;11346;50.150;8.150;2022-08-11T05:19:26;6.77;;;3.80;;
22357;SDS011;11346;50.150;8.150;2022-08-11T05:22:12;4.20;;;3.63;;
22357;SDS011;11346;50.150;8.150;2022-08-11T05:24:59;4.30;;;3.90;;
22357;SDS011;11346;50.150;8.150;2022-08-11T05:27:48;5.57;;;3.67;;
22357;SDS011;11346;50.150;8.150;2022-08-11T05:30:37;6.10;;;3.77;;
22357;SDS011;11346;50.150;8.150;2022-08-11T05:33:29;4.67;;;3.90;;
22357;SDS011;11346;50.150;8.150;2022-08-11T05:36:17;8.83;;;4.27;;
22357;SDS011;11346;50.150;8.150;2022-08-11T05:38:51;7.80;;;4.30;;
22357;SDS011;11346;50.150;8.150;2022-08-11T05:41:37;5.03;;;4.33;;
22357;SDS011;11346;50.150;8.150;2022-08-11T05:44:23;4.43;;;4.00;;
22357;SDS011;11346;50.150;8.150;2022-08-11T05:47:10;5.67;;;4.17;;
22357;SDS011;11346;50.150;8.150;2022-08-11T05:49:58;5.77;;;4.37;;
22357;SDS011;11346;50.150;8.150;2022-08-11T05:52:44;4.33;;;3.93;;
22357;SDS011;11346;50.150;8.150;2022-08-11T05:55:31;6.87;;;4.20;;
22357;SDS011;11346;50.150;8.150;2022-08-11T05:58:16;6.10;;;3.93;;
22357;SDS011;11346;50.150;8.150;2022-08-11T06:00:45;4.20;;;3.70;;
22357;SDS011;11346;50.150;8.150;2022-08-11T06:03:19;6.43;;;4.03;;
22357;SDS011;11346;50.150;8.150;2022-08-11T06:05:47;5.63;;;3.70;;
22357;SDS011;11346;50.150;8.150;2022-08-11T06:08:14;5.03;;;3.53;;
22357;SDS011;11346;50.150;8.150;2022-08-11T06:10:45;3.97;;;3.60;;
22357;SDS011;11346;50.150;8.150;2022-08-11T06:13:13;5.70;;;3.60;;
22357;SDS011;11346;50.150;8.150;2022-08-11T06:15:43;6.50;;;3.60;;
22357;SDS011;11346;50.150;8.150;2022-08-11T06:18:12;5.70;;;3.23;;
22357;SDS011;11346;50.150;8.150;2022-08-11T06:20:44;7.07;;;3.53;;
22357;SDS011;11346;50.150;8.150;2022-08-11T06:23:12;8.33;;;3.50;;
22357;SDS011;11346;50.150;8.150;2022-08-11T06:25:42;5.50;;;3.77;;
22357;SDS011;11346;50.150;8.150;2022-08-11T06:28:11;4.00;;;3.40;;
22357;SDS011;11346;50.150;8.150;2022-08-11T06:30:38;4.17;;;3.50;;
22357;SDS011;11346;50.150;8.150;2022-08-11T06:33:07;4.43;;;3.53;;
22357;SDS011;11346;50.150;8.150;2022-08-11T06:35:37;6.13;;;3.47;;
22357;SDS011;11346;50.150;8.150;2022-08-11T06:38:05;6.57;;;3.97;;
22357;SDS011;11346;50.150;8.150;2022-08-11T06:40:35;7.60;;;3.53;;
22357;SDS011;11346;50.150;8.150;2022-08-11T06:43:05;7.03;;;3.30;;
22357;SDS011;11346;50.150;8.150;2022-08-11T06:45:39;7.03;;;3.70;;
22357;SDS011;11346;50.150;8.150;2022-08-11T06:48:14;6.30;;;3.90;;
22357;SDS011;11346;50.150;8.150;2022-08-11T06:50:45;7.93;;;3.80;;
22357;SDS011;11346;50.150;8.150;2022-08-11T06:53:31;5.30;;;3.67;;
22357;SDS011;11346;50.150;8.150;2022-08-11T06:55:59;8.77;;;3.80;;
22357;SDS011;11346;50.150;8.150;2022-08-11T06:58:46;6.57;;;3.77;;
22357;SDS011;11346;50.150;8.150;2022-08-11T07:01:35;6.90;;;3.30;;
22357;SDS011;11346;50.150;8.150;2022-08-11T07:04:10;3.87;;;3.17;;
22357;SDS011;11346;50.150;8.150;2022-08-11T07:06:42;5.37;;;3.67;;
22357;SDS011;11346;50.150;8.150;2022-08-11T07:09:42;3.90;;;3.43;;
22357;SDS011;11346;50.150;8.150;2022-08-11T07:12:36;5.53;;;3.53;;
22357;SDS011;11346;50.150;8.150;2022-08-11T07:15:23;7.23;;;3.70;;
22357;SDS011;11346;50.150;8.150;2022-08-11T07:18:09;7.83;;;3.40;;
22357;SDS011;11346;50.150;8.150;2022-08-11T07:20:54;4.73;;;3.17;;
22357;SDS011;11346;50.150;8.150;2022-08-11T07:23:49;10.67;;;3.60;;
22357;SDS011;11346;50.150;8.150;2022-08-11T07:26:36;4.67;;;3.00;;
22357;SDS011;11346;50.150;8.150;2022-08-11T07:29:24;4.80;;;2.83;;
22357;SDS011;11346;50.150;8.150;2022-08-11T07:31:53;6.07;;;3.20;;
22357;SDS011;11346;50.150;8.150;2022-08-11T07:34:27;10.03;;;3.00;;
22357;SDS011;11346;50.150;8.150;2022-08-11T07:37:02;5.17;;;2.97;;
22357;SDS011;11346;50.150;8.150;2022-08-11T07:39:32;5.07;;;3.00;;
22357;SDS011;11346;50.150;8.150;2022-08-11T07:42:06;4.20;;;2.63;;
22357;SDS011;11346;50.150;8.150;2022-08-11T07:44:34;3.13;;;2.50;;
22357;SDS011;11346;50.150;8.150;2022-08-11T07:47:22;2.90;;;2.13;;
22357;SDS011;11346;50.150;8.150;2022-08-11T07:50:09;6.80;;;2.77;;
22357;SDS011;11346;50.150;8.150;2022-08-11T07:52:55;4.23;;;2.13;;
22357;SDS011;11346;50.150;8.150;2022-08-11T07:55:23;2.83;;;2.17;;
22357;SDS011;11346;50.150;8.150;2022-08-11T07:57:52;6.07;;;2.33;;
22357;SDS011;11346;50.150;8.150;2022-08-11T08:00:37;3.63;;;2.00;;
22357;SDS011;11346;50.150;8.150;2022-08-11T08:03:23;5.90;;;2.30;;
22357;SDS011;11346;50.150;8.150;2022-08-11T08:06:09;4.33;;;2.30;;
22357;SDS011;11346;50.150;8.150;2022-08-11T08:08:54;2.30;;;2.10;;
22357;SDS011;11346;50.150;8.150;2022-08-11T08:11:40;3.13;;;2.30;;
22357;SDS011;11346;50.150;8.150;2022-08-11T08:14:25;3.97;;;2.30;;
22357;SDS011;11346;50.150;8.150;2022-08-11T08:17:10;6.50;;;2.40;;
22357;SDS011;11346;50.150;8.150;2022-08-11T08:19:55;4.70;;;2.40;;
22357;SDS011;11346;50.150;8.150;2022-08-11T08:22:24;2.80;;;2.53;;
22357;SDS011;11346;50.150;8.150;2022-08-11T08:24:52;2.70;;;2.40;;
22357;SDS011;11346;50.150;8.150;2022-08-11T08:27:20;3.40;;;2.33;;
22357;SDS011;11346;50.150;8.150;2022-08-11T08:29:49;4.77;;;2.53;;
22357;SDS011;11346;50.150;8.150;2022-08-11T08:32:36;5.37;;;2.67;;
22357;SDS011;11346;50.150;8.150;2022-08-11T08:35:04;8.50;;;2.43;;
22357;SDS011;11346;50.150;8.150;2022-08-11T08:37:33;2.47;;;2.27;;
22357;SDS011;11346;50.150;8.150;2022-08-11T08:40:01;2.80;;;2.53;;
22357;SDS011;11346;50.150;8.150;2022-08-11T08:42:29;3.03;;;2.47;;
22357;SDS011;11346;50.150;8.150;2022-08-11T08:44:57;2.73;;;2.47;;
22357;SDS011;11346;50.150;8.150;2022-08-11T08:47:25;6.13;;;2.50;;
22357;SDS011;11346;50.150;8.150;2022-08-11T08:49:55;5.57;;;2.50;;
22357;SDS011;11346;50.150;8.150;2022-08-11T08:52:25;3.10;;;2.63;;
22357;SDS011;11346;50.150;8.150;2022-08-11T08:54:57;5.13;;;2.87;;
22357;SDS011;11346;50.150;8.150;2022-08-11T08:57:27;39.80;;;4.07;;
22357;SDS011;11346;50.150;8.150;2022-08-11T08:59:57;5.63;;;2.37;;
22357;SDS011;11346;50.150;8.150;2022-08-11T09:02:25;2.87;;;2.40;;
22357;SDS011;11346;50.150;8.150;2022-08-11T09:04:53;4.33;;;2.50;;
22357;SDS011;11346;50.150;8.150;2022-08-11T09:07:21;4.00;;;2.50;;
22357;SDS011;11346;50.150;8.150;2022-08-11T09:09:51;5.90;;;2.67;;
22357;SDS011;11346;50.150;8.150;2022-08-11T09:12:25;2.77;;;2.30;;
22357;SDS011;11346;50.150;8.150;2022-08-11T09:14:52;7.30;;;2.57;;
22357;SDS011;11346;50.150;8.150;2022-08-11T09:17:28;3.63;;;2.40;;
22357;SDS011;11346;50.150;8.150;2022-08-11T09:19:59;4.73;;;2.40;;
22357;SDS011;11346;50.150;8.150;2022-08-11T09:22:27;2.87;;;2.30;;
22357;SDS011;11346;50.150;8.150;2022-08-11T09:25:12;4.70;;;2.50;;
22357;SDS011;11346;50.150;8.150;2022-08-11T09:28:02;3.00;;;2.20;;
22357;SDS011;11346;50.150;8.150;2022-08-11T09:30:30;4.83;;;2.13;;
22357;SDS011;11346;50.150;8.150;2022-08-11T09:33:01;6.63;;;2.57;;
22357;SDS011;11346;50.150;8.150;2022-08-11T09:35:30;3.10;;;2.37;;
22357;SDS011;11346;50.150;8.150;2022-08-11T09:37:58;6.60;;;2.27;;
22357;SDS011;11346;50.150;8.150;2022-08-11T09:40:45;6.90;;;2.23;;
22357;SDS011;11346;50.150;8.150;2022-08-11T09:43:15;3.43;;;2.20;;
22357;SDS011;11346;50.150;8.150;2022-08-11T09:46:01;4.60;;;2.00;;
22357;SDS011;11346;50.150;8.150;2022-08-11T09:48:29;2.53;;;1.80;;
22357;SDS011;11346;50.150;8.150;2022-08-11T09:50:57;3.33;;;2.43;;
22357;SDS011;11346;50.150;8.150;2022-08-11T09:53:29;4.70;;;2.23;;
22357;SDS011;11346;50.150;8.150;2022-08-11T09:55:57;4.53;;;2.33;;
22357;SDS011;11346;50.150;8.150;2022-08-11T09:58:47;3.23;;;2.20;;
22357;SDS011;11346;50.150;8.150;2022-08-11T10:01:14;2.47;;;2.27;;
22357;SDS011;11346;50.150;8.150;2022-08-11T10:03:52;2.53;;;2.20;;
22357;SDS011;11346;50.150;8.150;2022-08-11T10:06:25;3.17;;;2.50;;
22357;SDS011;11346;50.150;8.150;2022-08-11T10:09:11;6.17;;;2.43;;
22357;SDS011;11346;50.150;8.150;2022-08-11T10:11:40;2.77;;;2.30;;
22357;SDS011;11346;50.150;8.150;2022-08-11T10:14:09;3.73;;;2.33;;
22357;SDS011;11346;50.150;8.150;2022-08-11T10:16:55;7.60;;;2.60;;
22357;SDS011;11346;50.150;8.150;2022-08-11T10:19:22;3.77;;;2.20;;
22357;SDS011;11346;50.150;8.150;2022-08-11T10:21:50;3.77;;;2.77;;
22357;SDS011;11346;50.150;8.150;2022-08-11T10:24:31;9.13;;;2.73;;
22357;SDS011;11346;50.150;8.150;2022-08-11T10:27:16;4.00;;;2.57;;
22357;SDS011;11346;50.150;8.150;2022-08-11T10:29:45;10.53;;;2.57;;
22357;SDS011;11346;50.150;8.150;2022-08-11T10:32:30;5.23;;;2.83;;
22357;SDS011;11346;50.150;8.150;2022-08-11T10:35:15;4.97;;;2.40;;
22357;SDS011;11346;50.150;8.150;2022-08-11T10:37:43;6.27;;;2.53;;
22357;SDS011;11346;50.150;8.150;2022-08-11T10:40:12;5.17;;;2.57;;
22357;SDS011;11346;50.150;8.150;2022-08-11T10:42:40;3.23;;;2.90;;
22357;SDS011;11346;50.150;8.150;2022-08-11T10:45:27;3.00;;;2.80;;
22357;SDS011;11346;50.150;8.150;2022-08-11T10:48:12;5.57;;;2.77;;
22357;SDS011;11346;50.150;8.150;2022-08-11T10:50:40;2.83;;;2.40;;
22357;SDS011;11346;50.150;8.150;2022-08-11T10:53:28;4.73;;;2.53;;
22357;SDS011;11346;50.150;8.150;2022-08-11T10:56:13;4.17;;;2.40;;
22357;SDS011;11346;50.150;8.150;2022-08-11T10:58:58;3.00;;;2.43;;
22357;SDS011;11346;50.150;8.150;2022-08-11T11:01:27;7.10;;;2.80;;
22357;SDS011;11346;50.150;8.150;2022-08-11T11:03:57;5.33;;;2.87;;
22357;SDS011;11346;50.150;8.150;2022-08-11T11:06:26;3.53;;;2.50;;
22357;SDS011;11346;50.150;8.150;2022-08-11T11:08:58;6.53;;;2.70;;
22357;SDS011;11346;50.150;8.150;2022-08-11T11:11:27;8.37;;;2.40;;
22357;SDS011;11346;50.150;8.150;2022-08-11T11:14:09;5.90;;;2.50;;
22357;SDS011;11346;50.150;8.150;2022-08-11T11:16:57;3.00;;;2.50;;
22357;SDS011;11346;50.150;8.150;2022-08-11T11:19:42;3.27;;;2.53;;
22357;SDS011;11346;50.150;8.150;2022-08-11T11:22:09;4.97;;;2.40;;
22357;SDS011;11346;50.150;8.150;2022-08-11T11:24:57;4.03;;;2.70;;
22357;SDS011;11346;50.150;8.150;2022-08-11T11:27:28;3.97;;;2.37;;
22357;SDS011;11346;50.150;8.150;2022-08-11T11:30:00;3.93;;;2.20;;
22357;SDS011;11346;50.150;8.150;2022-08-11T11:32:31;4.77;;;2.33;;
22357;SDS011;11346;50.150;8.150;2022-08-11T11:35:09;3.07;;;2.40;;
22357;SDS011;11346;50.150;8.150;2022-08-11T11:37:38;4.07;;;2.43;;
22357;SDS011;11346;50.150;8.150;2022-08-11T11:40:07;3.20;;;2.23;;
22357;SDS011;11346;50.150;8.150;2022-08-11T11:42:35;5.63;;;2.40;;
22357;SDS011;11346;50.150;8.150;2022-08-11T11:45:03;2.77;;;2.17;;
22357;SDS011;11346;50.150;8.150;2022-08-11T11:47:31;2.00;;;1.90;;
22357;SDS011;11346;50.150;8.150;2022-08-11T11:49:59;3.77;;;2.10;;
22357;SDS011;11346;50.150;8.150;2022-08-11T11:52:27;3.43;;;2.40;;
22357;SDS011;11346;50.150;8.150;2022-08-11T11:54:55;6.83;;;2.43;;
22357;SDS011;11346;50.150;8.150;2022-08-11T11:57:24;2.97;;;2.13;;
22357;SDS011;11346;50.150;8.150;2022-08-11T12:00:10;4.60;;;2.83;;
22357;SDS011;11346;50.150;8.150;2022-08-11T12:02:58;4.50;;;2.40;;
22357;SDS011;11346;50.150;8.150;2022-08-11T12:05:26;4.00;;;2.43;;
22357;SDS011;11346;50.150;8.150;2022-08-11T12:07:54;6.93;;;2.40;;
22357;SDS011;11346;50.150;8.150;2022-08-11T12:10:41;3.63;;;2.10;;
22357;SDS011;11346;50.150;8.150;2022-08-11T12:13:09;2.53;;;2.00;;
22357;SDS011;11346;50.150;8.150;2022-08-11T12:15:54;2.57;;;2.00;;
22357;SDS011;11346;50.150;8.150;2022-08-11T12:18:29;2.00;;;1.90;;
22357;SDS011;11346;50.150;8.150;2022-08-11T12:20:57;3.80;;;2.00;;
22357;SDS011;11346;50.150;8.150;2022-08-11T12:23:25;6.03;;;2.17;;
22357;SDS011;11346;50.150;8.150;2022-08-11T12:26:11;4.47;;;2.07;;
22357;SDS011;11346;50.150;8.150;2022-08-11T12:28:58;7.33;;;2.30;;
22357;SDS011;11346;50.150;8.150;2022-08-11T12:31:27;4.73;;;2.20;;
22357;SDS011;11346;50.150;8.150;2022-08-11T12:34:00;3.70;;;2.10;;
22357;SDS011;11346;50.150;8.150;2022-08-11T12:36:28;6.27;;;2.10;;
22357;SDS011;11346;50.150;8.150;2022-08-11T12:38:57;5.10;;;2.40;;
22357;SDS011;11346;50.150;8.150;2022-08-11T12:41:26;5.87;;;2.30;;
22357;SDS011;11346;50.150;8.150;2022-08-11T12:44:11;2.67;;;2.30;;
22357;SDS011;11346;50.150;8.150;2022-08-11T12:46:56;3.30;;;2.60;;
22357;SDS011;11346;50.150;8.150;2022-08-11T12:49:27;3.40;;;2.20;;
22357;SDS011;11346;50.150;8.150;2022-08-11T12:52:16;4.47;;;2.07;;
22357;SDS011;11346;50.150;8.150;2022-08-11T12:54:47;3.17;;;2.10;;
22357;SDS011;11346;50.150;8.150;2022-08-11T12:57:16;4.63;;;2.10;;
22357;SDS011;11346;50.150;8.150;2022-08-11T13:00:02;6.97;;;2.33;;
22357;SDS011;11346;50.150;8.150;2022-08-11T13:02:47;2.90;;;2.33;;
22357;SDS011;11346;50.150;8.150;2022-08-11T13:05:34;4.93;;;2.40;;
22357;SDS011;11346;50.150;8.150;2022-08-11T13:08:02;5.67;;;2.30;;
22357;SDS011;11346;50.150;8.150;2022-08-11T13:10:30;3.50;;;2.50;;
22357;SDS011;11346;50.150;8.150;2022-08-11T13:13:16;3.47;;;2.40;;
22357;SDS011;11346;50.150;8.150;2022-08-11T13:15:45;2.67;;;2.27;;
22357;SDS011;11346;50.150;8.150;2022-08-11T13:18:13;3.53;;;2.60;;
22357;SDS011;11346;50.150;8.150;2022-08-11T13:20:42;6.07;;;2.77;;
22357;SDS011;11346;50.150;8.150;2022-08-11T13:23:11;5.70;;;2.73;;
22357;SDS011;11346;50.150;8.150;2022-08-11T13:25:39;3.83;;;2.50;;
22357;SDS011;11346;50.150;8.150;2022-08-11T13:28:06;7.10;;;2.90;;
22357;SDS011;11346;50.150;8.150;2022-08-11T13:30:35;3.63;;;2.50;;
22357;SDS011;11346;50.150;8.150;2022-08-11T13:33:20;3.90;;;2.87;;
22357;SDS011;11346;50.150;8.150;2022-08-11T13:35:50;4.13;;;2.73;;
22357;SDS011;11346;50.150;8.150;2022-08-11T13:38:19;4.03;;;2.70;;
22357;SDS011;11346;50.150;8.150;2022-08-11T13:40:47;3.53;;;3.10;;
22357;SDS011;11346;50.150;8.150;2022-08-11T13:43:15;7.60;;;3.37;;
22357;SDS011;11346;50.150;8.150;2022-08-11T13:45:42;7.50;;;2.70;;
22357;SDS011;11346;50.150;8.150;2022-08-11T13:48:11;4.90;;;3.27;;
22357;SDS011;11346;50.150;8.150;2022-08-11T13:50:39;3.10;;;2.80;;
22357;SDS011;11346;50.150;8.150;2022-08-11T13:53:26;4.87;;;2.97;;
22357;SDS011;11346;50.150;8.150;2022-08-11T13:55:55;6.70;;;3.00;;
22357;SDS011;11346;50.150;8.150;2022-08-11T13:58:23;3.87;;;2.90;;
22357;SDS011;11346;50.150;8.150;2022-08-11T14:00:51;5.57;;;2.90;;
22357;SDS011;11346;50.150;8.150;2022-08-11T14:03:20;5.57;;;2.73;;
22357;SDS011;11346;50.150;8.150;2022-08-11T14:05:49;3.10;;;2.80;;
22357;SDS011;11346;50.150;8.150;2022-08-11T14:08:18;3.13;;;2.80;;
22357;SDS011;11346;50.150;8.150;2022-08-11T14:10:48;3.30;;;3.00;;
22357;SDS011;11346;50.150;8.150;2022-08-11T14:13:36;3.80;;;3.00;;
22357;SDS011;11346;50.150;8.150;2022-08-11T14:16:05;4.23;;;2.90;;
22357;SDS011;11346;50.150;8.150;2022-08-11T14:18:34;11.43;;;3.10;;
22357;SDS011;11346;50.150;8.150;2022-08-11T14:21:03;3.17;;;2.70;;
22357;SDS011;11346;50.150;8.150;2022-08-11T14:23:49;3.57;;;3.00;;
22357;SDS011;11346;50.150;8.150;2022-08-11T14:26:20;5.67;;;3.00;;
22357;SDS011;11346;50.150;8.150;2022-08-11T14:28:51;3.50;;;2.90;;
22357;SDS011;11346;50.150;8.150;2022-08-11T14:31:19;6.47;;;2.70;;
22357;SDS011;11346;50.150;8.150;2022-08-11T14:33:47;4.13;;;2.90;;
22357;SDS011;11346;50.150;8.150;2022-08-11T14:36:14;4.53;;;2.60;;
22357;SDS011;11346;50.150;8.150;2022-08-11T14:38:42;5.27;;;2.87;;
22357;SDS011;11346;50.150;8.150;2022-08-11T14:41:09;4.37;;;3.30;;
22357;SDS011;11346;50.150;8.150;2022-08-11T14:43:55;5.97;;;2.80;;
22357;SDS011;11346;50.150;8.150;2022-08-11T14:46:46;3.13;;;2.83;;
22357;SDS011;11346;50.150;8.150;2022-08-11T14:49:32;7.93;;;3.00;;
22357;SDS011;11346;50.150;8.150;2022-08-11T14:52:00;6.53;;;3.00;;
22357;SDS011;11346;50.150;8.150;2022-08-11T14:54:28;7.63;;;3.07;;
22357;SDS011;11346;50.150;8.150;2022-08-11T14:57:13;3.30;;;2.93;;
22357;SDS011;11346;50.150;8.150;2022-08-11T14:59:42;4.97;;;2.97;;
22357;SDS011;11346;50.150;8.150;2022-08-11T15:02:11;4.47;;;3.23;;
22357;SDS011;11346;50.150;8.150;2022-08-11T15:04:57;6.93;;;3.07;;
22357;SDS011;11346;50.150;8.150;2022-08-11T15:07:24;7.37;;;3.20;;
22357;SDS011;11346;50.150;8.150;2022-08-11T15:09:54;3.33;;;3.03;;
22357;SDS011;11346;50.150;8.150;2022-08-11T15:12:22;7.47;;;3.17;;
22357;SDS011;11346;50.150;8.150;2022-08-11T15:14:51;5.33;;;3.00;;
22357;SDS011;11346;50.150;8.150;2022-08-11T15:17:36;4.10;;;2.87;;
22357;SDS011;11346;50.150;8.150;2022-08-11T15:20:05;6.73;;;2.90;;
22357;SDS011;11346;50.150;8.150;2022-08-11T15:22:50;9.63;;;3.10;;
22357;SDS011;11346;50.150;8.150;2022-08-11T15:25:35;4.50;;;3.20;;
22357;SDS011;11346;50.150;8.150;2022-08-11T15:28:04;4.73;;;2.90;;
22357;SDS011;11346;50.150;8.150;2022-08-11T15:30:54;3.50;;;3.20;;
22357;SDS011;11346;50.150;8.150;2022-08-11T15:33:41;4.93;;;2.87;;
22357;SDS011;11346;50.150;8.150;2022-08-11T15:36:26;4.13;;;2.93;;
22357;SDS011;11346;50.150;8.150;2022-08-11T15:39:14;12.50;;;4.10;;
22357;SDS011;11346;50.150;8.150;2022-08-11T15:41:42;6.97;;;2.90;;
22357;SDS011;11346;50.150;8.150;2022-08-11T15:44:29;3.37;;;3.07;;
22357;SDS011;11346;50.150;8.150;2022-08-11T15:47:17;4.23;;;3.10;;
22357;SDS011;11346;50.150;8.150;2022-08-11T15:49:44;6.13;;;3.10;;
22357;SDS011;11346;50.150;8.150;2022-08-11T15:52:14;2.70;;;2.50;;
22357;SDS011;11346;50.150;8.150;2022-08-11T15:54:41;5.20;;;2.83;;
22357;SDS011;11346;50.150;8.150;2022-08-11T15:57:10;4.07;;;2.90;;
22357;SDS011;11346;50.150;8.150;2022-08-11T15:59:58;5.77;;;2.73;;
22357;SDS011;11346;50.150;8.150;2022-08-11T16:02:47;4.07;;;3.00;;
22357;SDS011;11346;50.150;8.150;2022-08-11T16:05:32;2.87;;;2.67;;
22357;SDS011;11346;50.150;8.150;2022-08-11T16:07:59;4.17;;;3.13;;
22357;SDS011;11346;50.150;8.150;2022-08-11T16:10:27;4.00;;;3.23;;
22357;SDS011;11346;50.150;8.150;2022-08-11T16:12:55;5.40;;;3.07;;
22357;SDS011;11346;50.150;8.150;2022-08-11T16:15:41;3.30;;;2.97;;
22357;SDS011;11346;50.150;8.150;2022-08-11T16:18:30;5.37;;;3.03;;
22357;SDS011;11346;50.150;8.150;2022-08-11T16:21:06;4.13;;;2.73;;
22357;SDS011;11346;50.150;8.150;2022-08-11T16:23:34;5.00;;;3.03;;
22357;SDS011;11346;50.150;8.150;2022-08-11T16:26:03;3.80;;;2.73;;
22357;SDS011;11346;50.150;8.150;2022-08-11T16:28:31;6.00;;;2.53;;
22357;SDS011;11346;50.150;8.150;2022-08-11T16:31:00;4.77;;;3.10;;
22357;SDS011;11346;50.150;8.150;2022-08-11T16:33:29;5.17;;;2.93;;
22357;SDS011;11346;50.150;8.150;2022-08-11T16:35:57;5.07;;;2.60;;
22357;SDS011;11346;50.150;8.150;2022-08-11T16:38:42;4.03;;;2.90;;
22357;SDS011;11346;50.150;8.150;2022-08-11T16:41:10;3.03;;;2.83;;
22357;SDS011;11346;50.150;8.150;2022-08-11T16:43:38;3.60;;;3.00;;